Time;durP1;ratioP1;P1;durP2;ratioP2;P2;SDS_P1;SDS_P2;PMS_P1;PMS_P2;Temp;Humidity;BMP_temperature;BMP_pressure;BME280_temperature;BME280_humidity;BME280_pressure;Samples;Min_cycle;Max_cycle;Signal;HPM_P1;HPM_P2
2022/05/31 00:02:25;;;;;;;5.43;2.85;;;;;;;21.27;39.82;99787.03;4955177;28;20103;-66
2022/05/31 00:04:51;;;;;;;4.88;2.50;;;;;;;21.27;40.06;99787.84;4955333;28;20122;-67
2022/05/31 00:07:17;;;;;;;6.68;2.55;;;;;;;21.26;40.14;99791.56;4955643;28;20412;-67
2022/05/31 00:09:44;;;;;;;5.15;2.53;;;;;;;21.25;40.13;99786.38;4955745;29;20066;-65
2022/05/31 00:12:10;;;;;;;5.43;2.53;;;;;;;21.25;40.17;99789.06;4955416;28;20113;-67
2022/05/31 00:14:37;;;;;;;4.75;2.05;;;;;;;21.24;40.12;99782.88;4955897;29;20027;-65
2022/05/31 00:17:03;;;;;;;8.30;2.38;;;;;;;21.24;40.11;99790.09;4955150;28;20045;-66
2022/05/31 00:19:28;;;;;;;4.00;2.40;;;;;;;21.20;40.09;99781.56;4955988;29;20042;-66
2022/05/31 00:22:07;;;;;;;3.95;2.58;;;;;;;21.23;40.23;99799.19;4954894;28;20027;-68
2022/05/31 00:24:34;;;;;;;3.42;2.30;;;;;;;21.21;40.51;99801.22;4955557;29;20027;-67
2022/05/31 00:26:59;;;;;;;4.07;1.60;;;;;;;21.22;40.62;99789.44;4954816;28;20402;-65
2022/05/31 00:29:26;;;;;;;3.92;2.17;;;;;;;21.23;40.63;99799.19;4955314;29;20031;-66
2022/05/31 00:31:52;;;;;;;5.70;2.15;;;;;;;21.23;40.73;99800.03;4954706;28;20090;-67
2022/05/31 00:34:18;;;;;;;3.92;1.98;;;;;;;21.25;40.76;99799.84;4955214;29;20027;-65
2022/05/31 00:36:47;;;;;;;4.40;2.17;;;;;;;21.23;40.62;99797.34;4955070;28;20035;-68
2022/05/31 00:39:13;;;;;;;3.28;2.63;;;;;;;21.22;40.34;99801.06;4955369;29;20101;-66
2022/05/31 00:41:39;;;;;;;7.63;2.42;;;;;;;21.21;40.63;99798.53;4954973;28;20069;-67
2022/05/31 00:44:19;;;;;;;4.10;3.33;;;;;;;21.20;40.21;99808.47;4955271;29;20046;-68
2022/05/31 00:46:56;;;;;;;5.95;2.13;;;;;;;21.16;40.43;99807.16;4954805;28;20043;-67
2022/05/31 00:49:35;;;;;;;5.85;2.20;;;;;;;21.18;40.33;99818.56;4955487;29;20155;-68
2022/05/31 00:52:30;;;;;;;6.03;2.47;;;;;;;21.17;40.17;99800.75;4954448;28;20067;-67
2022/05/31 00:55:08;;;;;;;8.13;2.45;;;;;;;21.15;40.41;99800.09;4951699;29;20117;-68
2022/05/31 00:57:36;;;;;;;4.38;2.58;;;;;;;21.16;40.44;99804.47;4954519;28;20520;-68
2022/05/31 01:00:12;;;;;;;6.95;2.67;;;;;;;21.14;40.50;99801.97;4955063;29;20031;-66
2022/05/31 01:02:40;;;;;;;5.00;2.55;;;;;;;21.14;40.42;99798.44;4954243;28;20059;-65
2022/05/31 01:05:09;;;;;;;4.88;2.60;;;;;;;21.12;40.32;99792.38;4954794;28;20043;-66
2022/05/31 01:07:35;;;;;;;5.50;2.40;;;;;;;21.13;40.34;99796.75;4954343;28;20067;-65
2022/05/31 01:10:04;;;;;;;5.72;2.63;;;;;;;21.13;40.33;99800.28;4954988;29;20035;-65
2022/05/31 01:12:29;;;;;;;6.05;2.70;;;;;;;21.11;40.49;99804.16;4953653;28;20403;-68
2022/05/31 01:14:55;;;;;;;4.43;2.17;;;;;;;21.12;40.41;99805.84;4954766;29;20034;-66
2022/05/31 01:17:23;;;;;;;6.07;2.75;;;;;;;21.12;40.59;99812.06;4954169;28;20039;-66
2022/05/31 01:19:58;;;;;;;5.30;2.30;;;;;;;21.12;40.45;99808.53;4954746;29;20067;-67
2022/05/31 01:22:46;;;;;;;3.15;2.10;;;;;;;21.11;40.54;99810.41;4953849;28;20047;-64
2022/05/31 01:25:49;;;;;;;4.63;2.40;;;;;;;21.10;40.46;99807.91;4954609;29;20027;-69
2022/05/31 01:28:33;;;;;;;4.90;1.77;;;;;;;21.09;40.61;99811.63;4954748;29;20536;-67
2022/05/31 01:31:15;;;;;;;3.88;1.73;;;;;;;21.07;40.68;99811.78;4956802;28;20505;-65
2022/05/31 01:33:51;;;;;;;9.00;2.65;;;;;;;21.07;40.56;99821.72;4973852;28;20398;-67
2022/05/31 01:36:24;;;;;;;5.63;2.30;;;;;;;21.08;40.63;99826.09;4935176;29;20044;-66
2022/05/31 01:38:59;;;;;;;6.68;2.15;;;;;;;21.07;40.87;99821.72;4935514;29;20053;-65
2022/05/31 01:41:32;;;;;;;4.00;2.00;;;;;;;21.06;40.81;99826.25;4938591;28;20038;-67
2022/05/31 01:44:02;;;;;;;6.10;2.33;;;;;;;21.06;40.89;99826.25;4954328;29;20027;-65
2022/05/31 01:46:31;;;;;;;3.65;2.00;;;;;;;21.06;40.65;99817.34;4954414;28;20513;-66
2022/05/31 01:48:59;;;;;;;3.13;2.20;;;;;;;21.04;40.81;99821.06;4954617;29;20406;-69
2022/05/31 01:51:26;;;;;;;5.43;1.88;;;;;;;21.06;41.00;99822.72;4954152;28;20546;-69
2022/05/31 01:53:53;;;;;;;3.42;1.52;;;;;;;21.05;40.74;99824.56;4954185;29;20043;-66
2022/05/31 01:56:20;;;;;;;3.55;1.88;;;;;;;21.05;40.95;99813.81;4954109;28;20035;-67
2022/05/31 01:58:47;;;;;;;3.65;2.15;;;;;;;21.03;41.13;99819.38;4935043;29;20049;-67
2022/05/31 02:01:14;;;;;;;5.53;2.88;;;;;;;21.04;40.97;99818.38;4937011;28;20058;-68
2022/05/31 02:03:42;;;;;;;2.95;1.55;;;;;;;21.04;41.12;99821.06;4953710;28;20047;-69
2022/05/31 02:06:42;;;;;;;3.78;1.75;;;;;;;21.03;41.08;99819.38;4954357;28;20164;-68
2022/05/31 02:09:12;;;;;;;3.03;1.80;;;;;;;21.01;41.23;99809.84;4914117;29;20100;-65
2022/05/31 02:11:39;;;;;;;4.18;1.55;;;;;;;21.03;41.21;99821.22;4946623;28;20442;-66
2022/05/31 02:14:06;;;;;;;3.45;1.40;;;;;;;21.03;41.28;99818.53;4953950;29;20034;-67
2022/05/31 02:16:31;;;;;;;2.60;1.50;;;;;;;21.03;41.30;99822.06;4954155;28;20035;-67
2022/05/31 02:19:18;;;;;;;2.90;1.33;;;;;;;21.01;41.20;99821.41;4954072;29;20027;-67
2022/05/31 02:21:43;;;;;;;3.95;1.40;;;;;;;21.01;41.40;99821.41;4954053;28;20519;-67
2022/05/31 02:24:12;;;;;;;2.53;1.20;;;;;;;21.03;41.39;99834.66;4954862;28;20035;-67
2022/05/31 02:26:41;;;;;;;2.58;1.10;;;;;;;21.01;41.43;99825.97;4957792;28;20544;-68
2022/05/31 02:29:09;;;;;;;5.40;2.03;;;;;;;21.00;41.37;99819.75;4957435;29;20028;-67
2022/05/31 02:31:35;;;;;;;2.55;1.38;;;;;;;21.03;41.51;99834.66;4957439;28;20027;-67
2022/05/31 02:34:01;;;;;;;2.28;1.40;;;;;;;21.02;41.68;99833.03;4957326;29;20034;-67
2022/05/31 02:36:27;;;;;;;1.92;1.23;;;;;;;21.01;41.66;99834.03;4957402;28;20398;-67
2022/05/31 02:38:53;;;;;;;2.60;1.65;;;;;;;21.01;41.68;99840.25;4957259;29;20043;-67
2022/05/31 02:41:20;;;;;;;2.40;1.52;;;;;;;21.00;41.71;99830.50;4957070;28;20039;-67
2022/05/31 02:43:46;;;;;;;3.25;1.52;;;;;;;21.01;41.64;99832.19;4956943;28;20061;-67
2022/05/31 02:46:12;;;;;;;3.05;1.45;;;;;;;21.00;41.49;99838.56;4956629;28;20482;-67
2022/05/31 02:48:38;;;;;;;2.78;1.40;;;;;;;20.99;41.65;99831.53;4957405;29;20043;-67
2022/05/31 02:51:03;;;;;;;2.20;1.42;;;;;;;20.99;41.57;99842.28;4957323;28;20052;-67
2022/05/31 02:53:29;;;;;;;2.33;1.15;;;;;;;20.99;41.78;99839.59;4957053;29;20034;-68
2022/05/31 02:55:56;;;;;;;3.63;1.70;;;;;;;20.98;41.60;99840.59;4956191;28;20031;-68
2022/05/31 02:58:21;;;;;;;3.15;1.77;;;;;;;20.99;41.70;99850.34;4956798;28;20106;-68
2022/05/31 03:00:47;;;;;;;3.45;1.48;;;;;;;20.98;41.96;99845.16;4957053;28;20435;-67
2022/05/31 03:03:13;;;;;;;3.67;1.40;;;;;;;20.98;42.12;99845.16;4956699;29;20066;-67
2022/05/31 03:05:39;;;;;;;2.42;1.45;;;;;;;21.00;41.78;99845.81;4957271;28;20042;-67
2022/05/31 03:08:05;;;;;;;3.38;1.20;;;;;;;20.98;41.79;99848.69;4956336;28;20043;-67
2022/05/31 03:10:36;;;;;;;2.55;1.60;;;;;;;20.99;42.03;99852.22;4956609;29;20039;-68
2022/05/31 03:13:03;;;;;;;1.60;1.10;;;;;;;20.98;42.10;99850.53;4956552;29;20031;-67
2022/05/31 03:15:33;;;;;;;4.45;1.20;;;;;;;20.97;41.99;99857.75;4956685;29;20042;-67
2022/05/31 03:18:08;;;;;;;2.25;1.33;;;;;;;20.96;42.30;99866.03;4956527;28;20035;-67
2022/05/31 03:20:44;;;;;;;2.92;1.50;;;;;;;20.97;42.03;99865.00;4956903;28;20046;-69
2022/05/31 03:23:22;;;;;;;2.33;1.23;;;;;;;20.95;42.05;99857.13;4956738;29;20039;-69
2022/05/31 03:25:49;;;;;;;1.45;1.00;;;;;;;20.94;42.12;99863.53;4956177;28;20031;-67
2022/05/31 03:28:16;;;;;;;1.70;1.08;;;;;;;20.95;42.28;99859.81;4956249;29;20034;-68
2022/05/31 03:30:41;;;;;;;1.67;1.05;;;;;;;20.94;42.31;99855.47;4956504;28;20031;-68
2022/05/31 03:33:09;;;;;;;1.98;1.25;;;;;;;20.95;42.45;99858.97;4956287;28;20046;-67
2022/05/31 03:35:36;;;;;;;2.42;1.13;;;;;;;20.94;42.53;99860.84;4955700;28;20031;-67
2022/05/31 03:38:01;;;;;;;3.20;1.58;;;;;;;20.94;42.45;99858.16;4956332;28;20035;-68
2022/05/31 03:43:11;;;;;;;2.55;1.23;;;;;;;20.95;42.24;99857.13;4956443;28;20090;-68
2022/05/31 03:45:39;;;;;;;2.50;1.42;;;;;;;20.95;42.38;99870.59;4956072;28;20023;-68
2022/05/31 03:48:05;;;;;;;2.33;1.10;;;;;;;20.96;42.41;99861.47;4955457;28;20041;-69
2022/05/31 03:50:32;;;;;;;4.75;1.30;;;;;;;20.95;42.65;99864.34;4956296;29;20039;-68
2022/05/31 03:52:58;;;;;;;2.08;1.35;;;;;;;20.95;42.66;99865.19;4955970;29;20505;-67
2022/05/31 03:55:23;;;;;;;1.45;1.10;;;;;;;20.94;42.67;99859.97;4956061;29;20039;-69
2022/05/31 03:57:50;;;;;;;2.30;1.50;;;;;;;20.96;42.65;99856.09;4967547;28;20038;-68
2022/05/31 04:00:16;;;;;;;3.17;1.30;;;;;;;20.96;42.79;99864.16;4975354;28;20046;-68
2022/05/31 04:02:42;;;;;;;2.70;1.45;;;;;;;20.95;42.65;99853.59;4960430;28;20138;-67
2022/05/31 04:05:08;;;;;;;2.30;1.20;;;;;;;20.98;42.89;99864.81;4955977;29;20118;-67
2022/05/31 04:07:35;;;;;;;2.10;1.25;;;;;;;20.98;42.68;99862.13;4955633;28;20478;-68
2022/05/31 04:10:05;;;;;;;3.42;1.33;;;;;;;20.99;42.88;99863.81;4955861;29;20402;-67
2022/05/31 04:12:34;;;;;;;1.65;1.00;;;;;;;21.00;43.02;99862.78;4955166;28;20043;-68
2022/05/31 04:15:00;;;;;;;2.60;1.20;;;;;;;20.98;43.05;99862.13;4955553;28;20387;-67
2022/05/31 04:17:25;;;;;;;2.13;0.90;;;;;;;21.01;43.03;99860.94;4955073;28;20071;-69
2022/05/31 04:19:51;;;;;;;2.30;1.20;;;;;;;20.99;42.76;99861.09;4955930;29;20047;-67
2022/05/31 04:22:16;;;;;;;2.50;1.35;;;;;;;21.02;42.81;99863.44;4955559;28;20031;-67
2022/05/31 04:24:42;;;;;;;2.10;1.00;;;;;;;21.02;43.01;99863.44;4955876;29;20494;-68
2022/05/31 04:27:07;;;;;;;4.35;1.35;;;;;;;21.01;43.04;99856.38;4937778;29;20090;-66
2022/05/31 04:29:35;;;;;;;3.00;1.30;;;;;;;21.02;43.15;99860.75;4955152;29;20038;-67
2022/05/31 04:32:00;;;;;;;2.28;1.27;;;;;;;21.01;43.04;99864.47;4954598;28;20039;-67
2022/05/31 04:34:27;;;;;;;3.42;1.75;;;;;;;20.99;43.07;99861.09;4955151;29;20406;-67
2022/05/31 04:36:52;;;;;;;2.47;1.60;;;;;;;21.01;42.89;99864.47;4955020;28;20513;-67
2022/05/31 04:39:18;;;;;;;3.28;1.40;;;;;;;21.00;43.09;99857.41;4955023;28;20174;-67
2022/05/31 04:41:43;;;;;;;3.42;1.20;;;;;;;20.98;43.06;99859.44;4954924;28;20042;-67
2022/05/31 04:44:09;;;;;;;5.30;2.42;;;;;;;20.99;43.00;99858.41;4955249;29;20047;-66
2022/05/31 04:46:35;;;;;;;3.10;1.30;;;;;;;20.99;43.09;99866.50;4954648;28;20034;-67
2022/05/31 04:49:02;;;;;;;3.60;1.08;;;;;;;20.99;43.01;99865.66;4954202;29;20094;-67
2022/05/31 04:51:29;;;;;;;3.40;1.38;;;;;;;20.98;43.12;99859.44;4954256;28;20054;-67
2022/05/31 04:53:54;;;;;;;2.83;1.33;;;;;;;21.00;43.01;99861.97;4954657;28;20035;-67
2022/05/31 04:56:21;;;;;;;3.17;1.23;;;;;;;20.97;43.10;99865.81;4954619;28;20031;-68
2022/05/31 04:58:48;;;;;;;4.32;1.20;;;;;;;20.97;43.02;99868.53;4954969;29;20046;-67
2022/05/31 05:01:13;;;;;;;2.83;1.10;;;;;;;20.95;43.13;99858.97;4954473;28;20066;-67
2022/05/31 05:03:41;;;;;;;3.30;1.20;;;;;;;20.97;43.15;99862.31;4954560;29;20094;-67
2022/05/31 05:06:08;;;;;;;3.63;1.65;;;;;;;20.98;43.11;99864.00;4954525;28;20039;-68
2022/05/31 05:08:36;;;;;;;2.17;1.30;;;;;;;20.97;43.36;99857.75;4954911;29;20058;-67
2022/05/31 05:11:04;;;;;;;3.65;1.55;;;;;;;20.97;43.32;99860.44;4954088;28;20043;-67
2022/05/31 05:13:30;;;;;;;4.53;1.63;;;;;;;20.98;43.23;99847.84;4954827;29;20031;-68
2022/05/31 05:15:57;;;;;;;7.20;2.33;;;;;;;20.97;43.42;99852.38;4954912;28;20058;-67
2022/05/31 05:18:23;;;;;;;4.18;2.10;;;;;;;20.99;43.23;99850.34;4954472;29;20578;-67
2022/05/31 05:20:50;;;;;;;3.90;0.95;;;;;;;21.00;43.20;99851.19;4954312;28;20490;-68
2022/05/31 05:23:15;;;;;;;2.15;0.93;;;;;;;21.00;43.28;99852.03;4955150;29;20486;-66
2022/05/31 05:25:46;;;;;;;4.43;1.20;;;;;;;21.03;43.29;99848.97;4954233;28;20031;-68
2022/05/31 05:30:56;;;;;;;3.55;1.08;;;;;;;21.03;43.33;99843.59;4954522;28;20042;-68
2022/05/31 05:33:21;;;;;;;4.18;1.38;;;;;;;21.03;43.32;99840.06;4954968;29;20035;-67
2022/05/31 05:35:47;;;;;;;2.55;1.58;;;;;;;21.03;43.46;99838.22;4954334;28;20071;-67
2022/05/31 05:38:13;;;;;;;4.90;1.50;;;;;;;21.03;43.34;99840.91;4954527;28;20517;-67
2022/05/31 05:40:39;;;;;;;1.80;1.25;;;;;;;21.04;43.52;99839.88;4969947;28;20479;-67
2022/05/31 05:43:10;;;;;;;3.13;1.30;;;;;;;21.05;43.41;99829.94;4953527;28;20070;-67
2022/05/31 05:45:36;;;;;;;4.43;1.85;;;;;;;21.06;43.57;99830.81;4954124;28;20023;-67
2022/05/31 05:48:03;;;;;;;4.68;1.50;;;;;;;21.06;43.69;99834.31;4954476;28;20118;-67
2022/05/31 05:50:28;;;;;;;6.07;1.52;;;;;;;21.07;43.33;99832.47;4954209;29;20031;-66
2022/05/31 05:53:00;;;;;;;5.75;1.55;;;;;;;21.08;43.48;99826.09;4954479;28;20035;-67
2022/05/31 05:55:26;;;;;;;4.10;1.38;;;;;;;21.09;43.59;99836.66;4954280;29;20031;-66
2022/05/31 05:57:51;;;;;;;3.17;1.30;;;;;;;21.11;43.46;99831.06;4953163;28;20054;-66
2022/05/31 06:00:17;;;;;;;3.95;1.40;;;;;;;21.11;43.47;99829.22;4956998;28;20086;-67
2022/05/31 06:02:47;;;;;;;8.20;1.40;;;;;;;21.12;43.63;99824.69;4957530;28;20055;-67
2022/05/31 06:05:22;;;;;;;6.93;1.50;;;;;;;21.12;43.55;99828.22;4957710;28;20066;-67
2022/05/31 06:07:55;;;;;;;4.57;1.55;;;;;;;21.14;43.49;99825.34;4954471;28;20062;-67
2022/05/31 06:10:25;;;;;;;3.25;1.75;;;;;;;21.13;43.39;99819.13;4957183;28;20098;-66
2022/05/31 06:12:56;;;;;;;3.58;1.40;;;;;;;21.14;43.50;99822.66;4956907;28;20039;-66
2022/05/31 06:15:26;;;;;;;5.05;1.40;;;;;;;21.12;43.55;99812.06;4957229;28;20118;-65
2022/05/31 06:17:55;;;;;;;8.77;1.92;;;;;;;21.14;43.53;99819.94;4957341;28;20043;-67
2022/05/31 06:20:22;;;;;;;6.93;1.95;;;;;;;21.16;43.53;99823.31;4957325;28;20094;-67
2022/05/31 06:22:47;;;;;;;2.42;1.30;;;;;;;21.17;43.65;99815.06;4957618;28;20488;-67
2022/05/31 06:25:15;;;;;;;3.17;1.30;;;;;;;21.19;43.47;99814.88;4957081;28;20058;-67
2022/05/31 06:27:41;;;;;;;4.53;1.45;;;;;;;21.19;43.34;99820.25;4957370;28;20442;-69
2022/05/31 06:30:07;;;;;;;3.55;1.38;;;;;;;21.20;43.49;99824.63;4957200;28;20178;-68
2022/05/31 06:32:33;;;;;;;4.30;1.33;;;;;;;21.21;43.52;99830.81;4939770;28;20042;-69
2022/05/31 06:34:58;;;;;;;3.70;1.55;;;;;;;21.19;43.70;99826.44;4939681;28;20178;-67
2022/05/31 06:37:24;;;;;;;4.45;1.55;;;;;;;21.22;43.62;99827.97;4956859;28;20046;-68
2022/05/31 06:39:49;;;;;;;2.78;1.42;;;;;;;21.23;43.52;99826.09;4957193;28;20042;-67
2022/05/31 06:42:15;;;;;;;1.63;1.27;;;;;;;21.24;43.50;99834.00;4956717;28;20491;-68
2022/05/31 06:44:43;;;;;;;1.92;1.27;;;;;;;21.26;43.46;99820.34;4957462;29;20031;-68
2022/05/31 06:47:10;;;;;;;5.00;1.48;;;;;;;21.27;43.45;99830.91;4957197;28;20050;-68
2022/05/31 06:49:37;;;;;;;3.47;1.58;;;;;;;21.29;43.58;99831.56;4957062;28;20071;-65
2022/05/31 06:57:35;;;;;;;5.25;1.90;;;;;;;21.30;43.61;99818.97;4955600;28;20446;-66
2022/05/31 07:00:01;;;;;;;3.55;1.80;;;;;;;21.33;43.71;99816.75;4957493;28;20049;-67
2022/05/31 07:02:27;;;;;;;4.50;2.83;;;;;;;21.35;43.74;99819.22;4974114;28;20480;-67
2022/05/31 07:04:54;;;;;;;4.82;3.35;;;;;;;21.37;43.55;99821.75;4962138;28;20127;-66
2022/05/31 07:07:20;;;;;;;8.30;5.32;;;;;;;21.38;43.75;99818.88;4956290;28;20565;-66
2022/05/31 07:09:46;;;;;;;9.82;5.43;;;;;;;21.43;43.82;99818.31;4956505;28;20436;-66
2022/05/31 07:12:11;;;;;;;12.00;6.65;;;;;;;21.44;43.78;99826.22;4955524;28;20058;-67
2022/05/31 07:14:37;;;;;;;12.57;5.95;;;;;;;21.46;43.90;99818.78;4956447;28;20063;-66
2022/05/31 07:17:03;;;;;;;13.00;5.90;;;;;;;21.49;43.88;99822.97;4956475;28;20545;-66
2022/05/31 07:19:29;;;;;;;9.18;6.05;;;;;;;21.50;43.82;99819.25;4956245;28;20117;-67
2022/05/31 07:21:58;;;;;;;9.27;6.38;;;;;;;21.53;43.59;99826.97;4956162;28;20039;-66
2022/05/31 07:24:23;;;;;;;9.60;7.13;;;;;;;21.54;43.86;99812.47;4955992;28;20039;-66
2022/05/31 07:26:49;;;;;;;9.93;5.68;;;;;;;21.55;43.85;99813.31;4956422;28;20086;-67
2022/05/31 07:29:14;;;;;;;7.07;4.93;;;;;;;21.58;43.77;99818.31;4956041;28;20035;-67
2022/05/31 07:31:42;;;;;;;8.73;5.60;;;;;;;21.59;43.76;99818.13;4956396;28;20443;-67
2022/05/31 07:34:10;;;;;;;8.38;4.97;;;;;;;21.62;43.86;99822.31;4955633;28;20035;-67
2022/05/31 07:36:37;;;;;;;7.60;4.63;;;;;;;21.64;43.85;99809.50;4955609;28;20035;-67
2022/05/31 07:39:03;;;;;;;7.50;4.40;;;;;;;21.66;43.67;99809.34;4955804;28;20066;-67
2022/05/31 07:41:32;;;;;;;10.15;4.78;;;;;;;21.70;43.78;99816.00;4956001;28;20058;-67
2022/05/31 07:43:58;;;;;;;6.55;4.50;;;;;;;21.71;43.76;99810.44;4956714;28;20082;-67
2022/05/31 07:46:24;;;;;;;5.43;3.78;;;;;;;21.75;43.79;99810.91;4955823;28;20039;-67
2022/05/31 07:48:50;;;;;;;8.02;4.15;;;;;;;21.79;43.78;99807.66;4955836;28;20138;-67
2022/05/31 07:51:15;;;;;;;6.00;3.60;;;;;;;21.83;43.62;99808.13;4955620;28;20187;-67
2022/05/31 07:53:41;;;;;;;5.25;3.53;;;;;;;21.87;43.56;99812.09;4955985;28;20104;-67
2022/05/31 07:56:07;;;;;;;7.97;3.88;;;;;;;21.90;43.53;99803.63;4955856;28;20614;-67
2022/05/31 07:58:37;;;;;;;6.88;3.15;;;;;;;21.93;43.56;99808.66;4955631;28;20046;-68
2022/05/31 08:01:06;;;;;;;6.55;3.40;;;;;;;21.99;43.59;99811.59;4955234;28;20045;-68
2022/05/31 08:03:33;;;;;;;5.07;3.13;;;;;;;21.95;43.61;99811.16;4955538;29;20077;-67
2022/05/31 08:06:04;;;;;;;6.05;3.00;;;;;;;21.99;43.45;99815.16;4955091;28;20039;-68
2022/05/31 08:08:29;;;;;;;8.30;3.38;;;;;;;21.99;43.54;99811.59;4955630;29;20521;-68
2022/05/31 08:10:56;;;;;;;5.80;3.10;;;;;;;22.00;43.52;99818.66;4955224;28;20043;-67
2022/05/31 08:13:21;;;;;;;9.73;2.75;;;;;;;22.00;43.58;99816.81;4955517;29;20043;-66
2022/05/31 08:15:47;;;;;;;6.25;2.50;;;;;;;22.00;43.54;99818.66;4955726;28;20041;-66
2022/05/31 08:18:12;;;;;;;5.47;2.30;;;;;;;21.99;43.50;99820.53;4954989;28;20070;-67
2022/05/31 08:20:39;;;;;;;5.68;2.47;;;;;;;21.99;43.49;99811.59;4970483;28;20034;-67
2022/05/31 08:23:05;;;;;;;5.32;3.38;;;;;;;21.98;43.62;99805.38;4972228;28;20034;-67
2022/05/31 08:25:33;;;;;;;4.65;2.33;;;;;;;21.99;43.56;99806.22;4955610;28;20118;-67
2022/05/31 08:28:00;;;;;;;8.50;2.55;;;;;;;21.98;43.53;99805.38;4954954;28;20402;-67
2022/05/31 08:30:26;;;;;;;3.97;1.90;;;;;;;21.98;43.65;99809.97;4955041;28;20582;-67
2022/05/31 08:32:51;;;;;;;9.00;2.72;;;;;;;21.96;43.61;99804.75;4954696;28;20042;-68
2022/05/31 08:35:16;;;;;;;6.70;2.60;;;;;;;21.95;43.66;99806.63;4955528;29;20027;-68
2022/05/31 08:37:42;;;;;;;7.97;2.35;;;;;;;21.95;43.64;99806.63;4955244;28;20122;-68
2022/05/31 08:40:08;;;;;;;5.72;2.25;;;;;;;21.93;43.72;99803.28;4955019;29;20035;-69
2022/05/31 08:43:04;;;;;;;4.30;2.53;;;;;;;21.92;43.79;99809.69;4954314;28;20035;-69
2022/05/31 08:46:01;;;;;;;8.77;2.90;;;;;;;21.92;43.72;99798.06;4937487;28;20427;-68
2022/05/31 08:48:33;;;;;;;4.28;2.58;;;;;;;21.89;43.79;99801.16;4952674;29;20134;-67
2022/05/31 08:56:57;;;;;;;5.05;2.67;;;;;;;21.92;43.77;99806.97;4944196;28;20045;-68
2022/05/31 08:59:40;;;;;;;5.07;2.20;;;;;;;21.90;43.79;99803.63;4954631;28;20047;-69
2022/05/31 09:02:24;;;;;;;3.15;1.75;;;;;;;21.92;43.83;99803.44;4954508;28;20058;-68
2022/05/31 09:05:13;;;;;;;4.53;2.78;;;;;;;21.93;43.87;99808.66;4953874;28;20506;-66
2022/05/31 09:07:53;;;;;;;5.78;2.20;;;;;;;21.95;43.92;99803.06;4954188;28;20042;-68
2022/05/31 09:10:54;;;;;;;3.00;1.88;;;;;;;21.95;43.94;99808.47;4953675;28;20399;-69
2022/05/31 09:13:49;;;;;;;2.63;1.95;;;;;;;21.97;43.99;99814.50;4848843;29;20080;-68
2022/05/31 09:16:45;;;;;;;4.60;1.88;;;;;;;21.97;44.07;99814.50;4953142;28;20070;-67
2022/05/31 09:19:17;;;;;;;3.80;2.15;;;;;;;21.97;44.18;99805.59;4954846;28;20394;-68
2022/05/31 09:21:46;;;;;;;3.40;1.88;;;;;;;21.99;44.11;99801.69;4954488;28;20039;-66
2022/05/31 09:24:14;;;;;;;3.03;1.88;;;;;;;22.03;44.14;99807.50;4954554;28;20498;-68
2022/05/31 09:27:07;;;;;;;3.03;1.90;;;;;;;22.06;44.16;99809.84;4953912;28;20043;-66
2022/05/31 09:29:54;;;;;;;4.65;1.52;;;;;;;22.07;44.17;99814.19;4953926;28;20046;-66
2022/05/31 09:32:38;;;;;;;3.50;1.77;;;;;;;22.06;44.33;99807.13;4946571;28;20042;-70
2022/05/31 09:35:19;;;;;;;3.80;2.00;;;;;;;22.03;44.28;99807.50;4954960;28;20379;-68
2022/05/31 09:38:10;;;;;;;3.70;2.35;;;;;;;21.99;44.63;99811.59;4958345;28;20455;-66
2022/05/31 09:40:47;;;;;;;2.50;1.83;;;;;;;21.92;44.88;99798.91;4965917;28;20094;-67
2022/05/31 09:43:25;;;;;;;7.90;3.28;;;;;;;21.89;45.04;99807.34;4957603;28;20043;-65
2022/05/31 09:46:09;;;;;;;4.18;2.83;;;;;;;21.86;45.02;99809.59;4959784;28;20072;-66
2022/05/31 09:48:52;;;;;;;4.85;3.88;;;;;;;21.79;45.23;99810.34;4956034;28;20035;-68
2022/05/31 09:51:33;;;;;;;7.53;3.15;;;;;;;21.76;45.17;99815.28;4954488;28;20122;-68
2022/05/31 09:59:30;;;;;;;7.20;3.38;;;;;;;21.71;45.44;99804.22;4961982;28;20041;-68
2022/05/31 10:02:12;;;;;;;7.32;3.65;;;;;;;21.72;45.37;99803.19;4958116;28;20202;-68
2022/05/31 10:04:38;;;;;;;10.63;3.38;;;;;;;21.72;45.57;99803.19;4971153;28;20406;-68
2022/05/31 10:07:06;;;;;;;5.45;3.17;;;;;;;21.74;45.43;99809.22;4964183;28;20035;-68
2022/05/31 10:09:32;;;;;;;11.23;3.00;;;;;;;21.75;45.35;99797.44;4958331;28;20509;-67
2022/05/31 10:12:12;;;;;;;8.45;2.25;;;;;;;21.74;45.16;99811.94;4969114;28;20035;-67
2022/05/31 10:14:42;;;;;;;7.50;2.92;;;;;;;21.71;45.33;99807.75;4976934;28;20479;-66
2022/05/31 10:17:33;;;;;;;3.92;2.47;;;;;;;21.70;45.34;99803.41;4958847;28;20097;-67
2022/05/31 10:20:09;;;;;;;8.30;2.17;;;;;;;21.71;45.47;99806.91;4958552;28;20035;-68
2022/05/31 10:22:35;;;;;;;8.07;2.40;;;;;;;;;;4956457;28;20058;-67
2022/05/31 10:25:18;;;;;;;6.43;2.35;;;;;;;;;;4956035;28;20090;-67
2022/05/31 10:27:44;;;;;;;6.25;2.65;;;;;;;21.68;45.55;99810.00;4959199;28;20105;-68
2022/05/31 10:30:16;;;;;;;3.00;2.08;;;;;;;;;;4956819;28;20122;-66
2022/05/31 10:32:51;;;;;;;7.75;3.03;;;;;;;21.68;45.51;99801.91;4956469;28;20035;-68
2022/05/31 10:35:29;;;;;;;5.68;2.28;;;;;;;21.70;45.56;99800.69;4956182;28;20035;-68
2022/05/31 10:37:57;;;;;;;15.27;2.15;;;;;;;;;;4950817;28;20047;-67
2022/05/31 10:40:52;;;;;;;7.50;2.13;;;;;;;21.70;45.60;99802.53;4956964;28;20038;-67
2022/05/31 10:43:30;;;;;;;3.95;2.28;;;;;;;21.70;45.40;99802.53;4952494;28;20534;-66
2022/05/31 10:45:57;;;;;;;5.55;2.10;;;;;;;21.71;45.43;99805.06;4956494;28;20470;-66
2022/05/31 10:48:24;;;;;;;4.40;2.20;;;;;;;21.73;45.32;99803.03;4957277;28;20426;-67
2022/05/31 10:51:13;;;;;;;4.65;2.25;;;;;;;21.76;45.17;99812.56;4956967;28;20118;-67
2022/05/31 10:53:57;;;;;;;5.53;2.40;;;;;;;21.75;45.25;99803.69;4957366;28;20039;-67
2022/05/31 10:56:35;;;;;;;6.35;2.60;;;;;;;21.77;45.40;99819.63;4956429;28;20070;-66
2022/05/31 10:59:14;;;;;;;7.22;2.90;;;;;;;21.77;45.17;99811.56;4956940;29;20082;-65
2022/05/31 11:01:52;;;;;;;8.38;3.10;;;;;;;21.79;45.35;99809.50;4957191;28;20085;-66
2022/05/31 11:04:39;;;;;;;8.55;2.92;;;;;;;21.79;45.43;99807.66;4957162;29;20058;-66
2022/05/31 11:07:21;;;;;;;9.25;2.67;;;;;;;21.80;45.36;99811.19;4956353;28;20125;-65
2022/05/31 11:13:00;;;;;;;10.05;2.80;;;;;;;21.82;45.55;99811.00;4956784;28;20073;-67
2022/05/31 11:15:29;;;;;;;5.97;2.42;;;;;;;21.80;45.53;99809.31;4956435;29;20039;-67
2022/05/31 11:18:08;;;;;;;8.57;2.92;;;;;;;21.83;45.52;99818.03;4955647;28;20114;-67
2022/05/31 11:20:43;;;;;;;3.60;2.05;;;;;;;21.83;45.50;99815.34;4956714;28;20093;-66
2022/05/31 11:23:25;;;;;;;6.22;2.50;;;;;;;21.82;45.60;99811.84;4956570;29;20051;-66
2022/05/31 11:25:57;;;;;;;5.47;2.97;;;;;;;21.83;45.76;99818.03;4956308;28;20067;-66
2022/05/31 11:28:57;;;;;;;5.90;3.15;;;;;;;21.83;45.56;99824.28;4956404;28;20042;-66
2022/05/31 11:31:31;;;;;;;5.25;2.33;;;;;;;21.83;45.45;99823.44;4956168;28;20033;-67
2022/05/31 11:34:29;;;;;;;3.83;1.88;;;;;;;21.85;45.65;99821.41;4956281;29;20517;-65
2022/05/31 11:36:58;;;;;;;5.15;2.08;;;;;;;21.83;45.64;99824.28;4940184;28;20066;-65
2022/05/31 11:39:42;;;;;;;3.80;2.05;;;;;;;21.85;45.59;99827.59;4956128;29;20030;-66
2022/05/31 11:42:23;;;;;;;4.15;1.95;;;;;;;21.83;45.50;99824.28;4956341;28;20038;-67
2022/05/31 11:45:21;;;;;;;4.95;2.15;;;;;;;21.85;45.49;99816.81;4955950;28;20039;-66
2022/05/31 11:47:58;;;;;;;7.00;2.50;;;;;;;21.84;45.53;99819.72;4956229;28;20402;-66
2022/05/31 11:50:40;;;;;;;5.68;2.33;;;;;;;21.87;45.51;99830.13;4956036;29;20035;-67
2022/05/31 11:53:18;;;;;;;4.57;2.20;;;;;;;21.85;45.52;99824.91;4955728;28;20050;-67
2022/05/31 11:55:57;;;;;;;9.73;2.63;;;;;;;21.86;45.43;99820.38;4955516;28;20027;-67
2022/05/31 11:58:40;;;;;;;4.68;2.03;;;;;;;21.87;45.41;99830.13;4936772;29;20460;-66
2022/05/31 12:01:17;;;;;;;5.50;3.05;;;;;;;21.88;45.44;99829.09;4955011;28;20054;-66
2022/05/31 12:04:20;;;;;;;3.53;2.13;;;;;;;21.88;45.41;99824.53;4955591;29;20066;-67
2022/05/31 12:06:56;;;;;;;5.10;2.35;;;;;;;21.88;45.53;99831.81;4955390;28;20035;-67
2022/05/31 12:09:44;;;;;;;3.70;1.92;;;;;;;21.88;45.60;99832.63;4955442;28;20090;-67
2022/05/31 12:12:15;;;;;;;6.32;2.15;;;;;;;21.89;45.37;99828.91;4906904;29;20451;-67
2022/05/31 12:14:47;;;;;;;2.67;1.85;;;;;;;21.90;45.52;99827.88;4955379;28;20047;-67
2022/05/31 12:17:16;;;;;;;4.57;2.47;;;;;;;21.91;45.50;99831.44;4955342;28;20044;-67
2022/05/31 12:19:57;;;;;;;4.00;2.30;;;;;;;21.91;45.61;99824.16;4955352;28;20442;-66